Dodge City Regional Airport
KDDC : now visible

Airfield :











YOU CAN JOIN US ON...

 
LOGIN :

Register | Disclaimer

   EN    FR    IT 

 









Legend :    VFR   Marginal VFR   IFR   Intensive IFR   Very Intensive IFR
Visi :
Ceiling :
>= 8 km
>= 3000ft
5 to 8 km
1000 to 3000 ft
1500m to 5 km
500 to 1000 ft
800 to 1500m
200 to 500 ft
< 800m
< 200 ft
Symbols :   Thunderstorms  Fog  Heavy snow  Heavy precipitations  Wind > 20 kt







- Airport Elevation : 2594 ft
- IATA code : DDC


KDDC - Dodge City Regional

CURRENT METAR :
  • 181852Z AUTO 35022G35KT 10SM FEW070 18/M01 A2999 RMK AO2 PK WND 36040/1815 SLP144 T01831006

EXPIRED METARs :
  • 181752Z AUTO 34021G33KT 10SM FEW070 18/00 A3001 RMK AO2 PK WND 35038/1717 SLP148 T01830000 10183 20044 58005
  • 181652Z AUTO 32019G32KT 10SM FEW055 17/02 A3002 RMK AO2 PK WND 33032/1647 SLP154 T01720017

TAF KDDC
Valid from the 18 at 18:00 until the 19 at 18:00 UTC


181720Z 1818/1918 34024G33KT P6SM VCSH BKN050
FM182300 34020G30KT P6SM BKN070
FM190200 34006KT P6SM FEW200
KZKC FIR / North America



MET'MAP, your aeronautical weather chart ! - Copyright ORBIFLY December 2007 - Disclaimer

ORBIFLY MET'MAP TEAM :

Programming & Development : Alexandra Zaïnal
Concept & Development : Baudouin d'Aumeries
Co-Development & Prog : Marc-Olivier Méhu
Technical & hardware support : Manuel Goepfert

Contact : metmap@orbifly.com




SOURCES & CREDITS :

   NOAA       Earth
Advisory